Timeline UpdatesTrip UpdatesNews PostsPvt PostsTravel TipsAdmin PostsConv PostsFollowed PostsChat RequestsBlog PostsPNR Posts

Disclaimer
Search
 
 
Sat Jul 26, 2014 16:42:09 ISTHomeTrainsΣChainsAtlasPNRForumGalleryNewsFAQTripsMembersLoginFeedback
No Recent News for this Train
Other Trains in the News **new
Latest...
Permanent AC-3T added from 01 Sep 12 http://indiarailinfo.com/blog/post/512304
Sat Aug 25, 2012 (09:15AM)
⇐ Return Journey: Train# 18234

18233/Narmada Express

May 09 2014 (9:25PM)
Change Departure Station:
Change Arrival Station:
Post a Train Travel TipPost a Train Travel Tip **new
Post a Comment/Question/Picture/VideoPost a Comment/Question/Picture/Video
Pantry/Catering
✕ NO Pantry Car
✓ Catering Avbl
Loco/Rake Reversals
UJN/Ujjain Junction (8); ET/Itarsi Junction (7); KTE/Katni Junction (6);
RSA - Rake Sharing
Rake/Coach Composition
ENG-SLR-GS-GS-GS-S1-S2-S3-S4-S5-S6-S7-S8-S9-S10-A1-HA1-B1-B2-GS-GS-SLR (INDB-UJN, ET-KTE); ENG-SLR-GS-GS-B2-B1-HA1-A1-S10-S9-S8-S7-S6-S5-S4-S3-S2-S1-GS-GS-GS-SLR (UJN-ET), (KTE-BSP)
Loco
ET WAM 4/6p (INDB-ET) ET WDP4/WDM-3A (ET-KTE) ET WAM/P4 (KTE-BSP)
News    PNR    Forum    Time-Table    Availability    Fare Chart    Map    Arr/Dep History    Trips    Gallery    ΣChains    X/O    Timeline    
Travel Time: 24h 10m    69 halts    Distance: 1010 km    Avg Speed: 41 km/hr
Type: Mail/Express
Zone: SECR/South East Central
Departs @ 17:15
Platform# 3
SMTWTFS
Indore Junction BG/INDB 
Arrives @ 17:25 +1 night
Platform# 8
SMTWTFS
Bilaspur Junction/BSP 

69 halts. 125 intermediate Stations between Indore Junction BG and Bilaspur Junction

Show ALL intermediate Stations  Show Old Time-Table

#CodeStation NameX/OArrivesAvgDepartsAvgHaltPFDay#KmSpeedElevZoneAddress
1INDB»Indore Junction BG (3)»  -17:15-310.056552mWRIndore, Madhya Pradesh
2MGGMangliyagaon (2)  17:31-17:33-2m--115.075534mWRMangilya, Madhya Pradesh
3BLAXBarlai  17:41-17:43-2m--125.046519mWRIndore, Madhya Pradesh
4DWXDewas Junction (2)X  18:01-18:03-2m2138.837541mWRDewas, Madhya Pradesh
5NRGRNaranjipur (1)X  18:19-18:21-2m1148.639537mWRDewas, Madhya Pradesh
6UDMUndasa Madhopur  18:32-18:34-2m--155.948528mWRState Highway 18, Madhya Pradesh
7KDHAKarchhaX  18:41-18:43-2m--161.449514mWRState Highway 18, Madhya Pradesh
8VRGVikram Nagar  18:58-19:00-2m--173.733503mWRUjjain, Madhya Pradesh
9UJNUjjain Junction (8)19:10-19:40-30m1179.173492mWRUjjain 456001, Madhya Pradesh
10TANTarana Road  20:06-20:07-1m--1110.652498mWRMaksi, Madhya Pradesh
11MKCMaksi Junction (3)X  20:18-20:20-2m--1120.281513mWRMakshi, Madhya Pradesh
12BCHBerchha (2)  20:34-20:36-2m--1139.166490mWRShajapur, Madhya Pradesh
13KSHKali Sindh (2)  20:47-20:49-2m--1151.267443mWRShajapur, Madhya Pradesh
14AKDAkodia (2)  21:05-21:07-2m--1169.171460mWRDist. Shajapur, Madhya Pradesh
15SJPShujalpur (3)X  21:18-21:20-2m21182.269453mWRShujalpur, Madhya Pradesh
16KPPKalapipal (2)X  21:31-21:33-2m--1194.847487mWRState Highway 41, Madhya Pradesh
17SEHSehore (2)  22:10-22:12-2m21223.836500mWRMP 466001, Madhya Pradesh
18BIHBairagarh (2)X  22:59-23:01-2m21252.344522mWRBhopal, Madhya Pradesh
19BPLBhopal Junction (6)XO  23:15-23:25-10m31262.538497mWCRBhopal, Madhya Pradesh
20HBJBhopal HabibGanj (5)OO  23:35-23:37-2m41268.864496mWCRHabibGanj, Madhya Pradesh
21MDDPMandi Dip (1)XO  23:52-23:54-2m11284.914449mWCRMandideep, Madhya Pradesh
22ODGObaidulla GanjXO  00:53-00:55-2m12298.458450mWCRObaidullaganj Raisen Dist., Madhya Pradesh
23HBDHoshangabad (2)X  01:34-01:36-2m--2336.228308mWCRHoshangabad, Madhya Pradesh
24ETItarsi Junction (7)02:15-02:25-10m32354.259329mWCRItarsi 461111, Madhya Pradesh
25BGTABagratawa (2)X  02:52-02:54-2m--2380.777338mWCRBagra Tawa, Madhya Pradesh
26SGPSohagpur (2)  03:12-03:14-2m--2403.876340mWCRSohagpur, Madhya Pradesh
27PPIPipariya (3)X  03:28-03:30-2m12421.589338mWCRPiparia, Madhya Pradesh
28SCKRSalichauka Road (2)X  03:54-03:56-2m--2456.976355mWCRGadarwara, Madhya Pradesh
29GARGadarwara (2)X  04:07-04:09-2m12470.980352mWCRNarsinghpur, Madhya Pradesh
30KYKareli (2)  04:30-04:32-2m12498.866361mWCRKareli, Madhya Pradesh
31NUNarsinghpur (2)  04:47-04:49-2m12515.274365mWCRNarsimhapur, Madhya Pradesh
32SRIDShridham (3)  05:14-05:16-2m22546.266373mWCRShridham, Madhya Pradesh
33MMLMadan Mahal (3)X  06:01-06:03-2m22595.918428mWCRJabalpur, Madhya Pradesh
34JBPJabalpur Junction (4)X  06:15-06:25-10m32599.437416mWCRJabalpur, Madhya Pradesh
35ADTLAdhartal (2)X  06:38-06:40-2m--2607.441393mWCRJabalpur, Madhya Pradesh
36DOEDeori (2)  06:53-06:55-2m--2616.249392mWCRJabalpur, Madhya Pradesh
37GSPRGosalpur (2)XO  07:08-07:10-2m--2626.748396mWCRJabalpur, Madhya Pradesh
38SHRSihora Road (2)XO  07:24-07:26-2m--2637.875388mWCRJabalpur, Madhya Pradesh
39DDCEDundi (2)X  07:38-07:40-2m--2652.771415mWCRDundi, Madhya Pradesh
40SBDSleemanabad Road (2)  07:48-07:50-2m--2662.252434mWCRSleemanabad, Madhya Pradesh
41SNRRSansarpur (2)XO  07:58-08:00-2m--2669.258436mWCRNational Highway 7, Madhya Pradesh
42NWRNiwar (2)X  08:08-08:10-2m--2676.916412mWCRPipraundh, Madhya Pradesh
43KTEKatni Junction (6)X09:00-09:20-20m--2690.122387mWCRKatni, Madhya Pradesh
44JLWJhalwara  09:49-09:51-2m--2700.770406mSECRNational Highway 78, Madhya Pradesh
45RPDRupaundX  10:01-10:03-2m--2712.474417mSECRJhalwara, Madhya Pradesh
46CHDChandia Road (1)  10:17-10:19-2m12729.754406mSECRNational Highway 78, Madhya Pradesh
47UMRUmaria (3)  10:40-10:45-5m--2748.795469mSECRUmaria, Madhya Pradesh
48KKIKarkeli  10:53-10:55-2m--2761.360471mSECRUmaria, Madhya Pradesh
49NRZBNowrozabadX  11:05-11:07-2m--2771.362458mSECRNational Highway 78, Madhya Pradesh
50BRSBirsinghpur  11:14-11:16-2m--2778.651461mSECRPali, Madhya Pradesh
51SDLShahdolX  12:00-12:10-10m12815.973466mSECR, Madhya Pradesh
52BUHBurhar  12:26-12:28-2m--2835.465494mSECRBurhar, Madhya Pradesh
53AALAmlaiX  12:36-12:38-2m--2844.235495mSECRAnuppur, Madhya Pradesh
54APRAnuppur Junction (3)X  13:00-13:05-5m12856.877487mSECRAnuppur, Madhya Pradesh
55CLFChhulha  13:09-13:11-2m--2862.075488mSECRMauhari, Madhya Pradesh
56JTIJaithari  13:18-13:20-2m--2870.780522mSECRAnuppur, Madhya Pradesh
57NIQNigaura  13:28-13:30-2m--2881.465547mSECRAnuppur, Madhya Pradesh
58VKRVenkatnagarX  13:37-13:39-2m--2889.079549mSECRPendra Rd, Madhya Pradesh
59HRBHarri  13:47-13:49-2m--2899.624595mSECRVenkatnagar, Madhya Pradesh
60PNDPendra RoadO  14:10-14:15-5m--2908.062620mSECRBilaspur district, Chhattisgarh
61KOIKhodriO  14:26-14:28-2m--2919.441558mSECRBilaspur, Chhattisgarh
62BHTKBhanwar Tonk  14:45-14:47-2m--2931.044455mSECRKhodri, Chhattisgarh
63KGSKhongsara  15:04-15:06-2m--2943.485378mSECRBhanwar, Chhattisgarh
64TGQTenganmadaX  15:12-15:16-4m--2951.974367mSECRBelgahna, Chhattisgarh
65BIGBelgahnaX  15:24-15:26-2m--2961.765327mSECRBilaspur, Chhattisgarh
66SLKRSalkaroad  15:33-15:35-2m--2969.361333mSECRGhutku, Chhattisgarh
67KGBKargi RoadX  15:43-15:45-2m--2977.559327mSECRBilaspur, Chhattisgarh
68KLTRKalmitar  15:53-15:55-2m--2985.319300mSECRUsalapur, Chhattisgarh
69GTKGhutku  16:20-16:22-2m--2993.320288mSECRBilaspur, Chhattisgarh
70USLUslapur (3)  16:45-16:50-5m--21001.015272mSECRBilaspur, Chhattisgarh
71BSP•Bilaspur Junction (8)•  17:25--821009.5-271mSECRBilaspur, Chhattisgarh
Scroll to Top
Scroll to Bottom